sensor_id;sensor_type;location;lat;lon;timestamp;temperature;humidity
10964;DHT22;5534;48.784;9.190;2023-03-12T00:01:59;5.10;99.90
10964;DHT22;5534;48.784;9.190;2023-03-12T00:04:26;5.00;99.90
10964;DHT22;5534;48.784;9.190;2023-03-12T00:06:52;5.10;99.90
10964;DHT22;5534;48.784;9.190;2023-03-12T00:09:18;5.00;99.90
10964;DHT22;5534;48.784;9.190;2023-03-12T00:11:44;5.00;99.90
10964;DHT22;5534;48.784;9.190;2023-03-12T00:14:09;5.00;99.90
10964;DHT22;5534;48.784;9.190;2023-03-12T00:16:35;5.00;99.90
10964;DHT22;5534;48.784;9.190;2023-03-12T00:19:01;4.90;99.90
10964;DHT22;5534;48.784;9.190;2023-03-12T00:21:27;4.90;99.90
10964;DHT22;5534;48.784;9.190;2023-03-12T00:23:52;4.80;99.90
10964;DHT22;5534;48.784;9.190;2023-03-12T00:26:20;4.80;99.90
10964;DHT22;5534;48.784;9.190;2023-03-12T00:28:47;4.80;99.90
10964;DHT22;5534;48.784;9.190;2023-03-12T00:31:22;4.90;99.90
10964;DHT22;5534;48.784;9.190;2023-03-12T00:33:49;4.80;99.90
10964;DHT22;5534;48.784;9.190;2023-03-12T00:36:16;4.80;99.90
10964;DHT22;5534;48.784;9.190;2023-03-12T00:38:44;4.80;99.90
10964;DHT22;5534;48.784;9.190;2023-03-12T00:41:11;4.80;99.90
10964;DHT22;5534;48.784;9.190;2023-03-12T00:43:37;4.70;99.90
10964;DHT22;5534;48.784;9.190;2023-03-12T00:46:03;4.80;99.90
10964;DHT22;5534;48.784;9.190;2023-03-12T00:48:29;4.80;99.90
10964;DHT22;5534;48.784;9.190;2023-03-12T00:50:55;4.80;99.90
10964;DHT22;5534;48.784;9.190;2023-03-12T00:53:20;4.90;99.90
10964;DHT22;5534;48.784;9.190;2023-03-12T00:55:46;4.70;99.90
10964;DHT22;5534;48.784;9.190;2023-03-12T00:58:12;4.70;99.90
10964;DHT22;5534;48.784;9.190;2023-03-12T01:00:37;4.70;99.90
10964;DHT22;5534;48.784;9.190;2023-03-12T01:03:03;4.80;99.90
10964;DHT22;5534;48.784;9.190;2023-03-12T01:05:29;4.70;99.90
10964;DHT22;5534;48.784;9.190;2023-03-12T01:07:56;4.70;99.90
10964;DHT22;5534;48.784;9.190;2023-03-12T01:10:22;4.70;99.90
10964;DHT22;5534;48.784;9.190;2023-03-12T01:12:47;4.70;99.90
10964;DHT22;5534;48.784;9.190;2023-03-12T01:15:15;4.50;99.90
10964;DHT22;5534;48.784;9.190;2023-03-12T01:17:41;4.50;99.90
10964;DHT22;5534;48.784;9.190;2023-03-12T01:20:08;4.60;99.90
10964;DHT22;5534;48.784;9.190;2023-03-12T01:22:34;4.60;99.90
10964;DHT22;5534;48.784;9.190;2023-03-12T01:25:00;4.60;99.90
10964;DHT22;5534;48.784;9.190;2023-03-12T01:27:26;4.70;99.90
10964;DHT22;5534;48.784;9.190;2023-03-12T01:29:52;4.70;99.90
10964;DHT22;5534;48.784;9.190;2023-03-12T01:32:18;4.70;99.90
10964;DHT22;5534;48.784;9.190;2023-03-12T01:34:43;4.70;99.90
10964;DHT22;5534;48.784;9.190;2023-03-12T01:37:10;4.70;99.90
10964;DHT22;5534;48.784;9.190;2023-03-12T01:39:35;4.80;99.90
10964;DHT22;5534;48.784;9.190;2023-03-12T01:42:02;4.70;99.90
10964;DHT22;5534;48.784;9.190;2023-03-12T01:44:29;4.60;99.90
10964;DHT22;5534;48.784;9.190;2023-03-12T01:46:54;4.60;99.90
10964;DHT22;5534;48.784;9.190;2023-03-12T01:49:29;4.40;99.90
10964;DHT22;5534;48.784;9.190;2023-03-12T01:52:03;4.20;99.90
10964;DHT22;5534;48.784;9.190;2023-03-12T01:54:30;4.30;99.90
10964;DHT22;5534;48.784;9.190;2023-03-12T01:56:57;4.60;99.90
10964;DHT22;5534;48.784;9.190;2023-03-12T01:59:29;4.70;99.90
10964;DHT22;5534;48.784;9.190;2023-03-12T02:01:56;4.80;99.90
10964;DHT22;5534;48.784;9.190;2023-03-12T02:04:24;4.80;99.90
10964;DHT22;5534;48.784;9.190;2023-03-12T02:06:59;4.90;99.90
10964;DHT22;5534;48.784;9.190;2023-03-12T02:09:26;4.80;99.90
10964;DHT22;5534;48.784;9.190;2023-03-12T02:11:52;4.80;99.90
10964;DHT22;5534;48.784;9.190;2023-03-12T02:14:18;4.70;99.90
10964;DHT22;5534;48.784;9.190;2023-03-12T02:16:44;4.60;99.90
10964;DHT22;5534;48.784;9.190;2023-03-12T02:19:34;4.70;99.90
10964;DHT22;5534;48.784;9.190;2023-03-12T02:22:03;4.80;99.90
10964;DHT22;5534;48.784;9.190;2023-03-12T02:24:40;4.90;99.90
10964;DHT22;5534;48.784;9.190;2023-03-12T02:27:10;4.90;99.90
10964;DHT22;5534;48.784;9.190;2023-03-12T02:29:38;4.60;99.90
10964;DHT22;5534;48.784;9.190;2023-03-12T02:32:07;4.70;99.90
10964;DHT22;5534;48.784;9.190;2023-03-12T02:34:34;4.80;99.90
10964;DHT22;5534;48.784;9.190;2023-03-12T02:37:00;4.80;99.90
10964;DHT22;5534;48.784;9.190;2023-03-12T02:39:26;4.80;99.90
10964;DHT22;5534;48.784;9.190;2023-03-12T02:41:58;4.60;99.90
10964;DHT22;5534;48.784;9.190;2023-03-12T02:44:26;4.60;99.90
10964;DHT22;5534;48.784;9.190;2023-03-12T02:46:56;4.70;99.90
10964;DHT22;5534;48.784;9.190;2023-03-12T02:49:26;4.80;99.90
10964;DHT22;5534;48.784;9.190;2023-03-12T02:51:52;4.80;99.90
10964;DHT22;5534;48.784;9.190;2023-03-12T02:54:20;4.90;99.90
10964;DHT22;5534;48.784;9.190;2023-03-12T02:56:47;4.80;99.90
10964;DHT22;5534;48.784;9.190;2023-03-12T02:59:14;4.10;99.90
10964;DHT22;5534;48.784;9.190;2023-03-12T03:01:40;4.00;99.90
10964;DHT22;5534;48.784;9.190;2023-03-12T03:04:09;4.30;99.90
10964;DHT22;5534;48.784;9.190;2023-03-12T03:06:37;4.20;99.90
10964;DHT22;5534;48.784;9.190;2023-03-12T03:09:05;4.20;99.90
10964;DHT22;5534;48.784;9.190;2023-03-12T03:11:31;4.40;99.90
10964;DHT22;5534;48.784;9.190;2023-03-12T03:13:57;4.50;99.90
10964;DHT22;5534;48.784;9.190;2023-03-12T03:16:23;4.70;99.90
10964;DHT22;5534;48.784;9.190;2023-03-12T03:18:49;4.70;99.90
10964;DHT22;5534;48.784;9.190;2023-03-12T03:21:16;4.70;99.90
10964;DHT22;5534;48.784;9.190;2023-03-12T03:23:47;4.70;99.90
10964;DHT22;5534;48.784;9.190;2023-03-12T03:26:13;4.60;99.90
10964;DHT22;5534;48.784;9.190;2023-03-12T03:28:39;4.50;99.90
10964;DHT22;5534;48.784;9.190;2023-03-12T03:31:05;4.30;99.90
10964;DHT22;5534;48.784;9.190;2023-03-12T03:33:34;4.50;99.90
10964;DHT22;5534;48.784;9.190;2023-03-12T03:36:00;4.40;99.90
10964;DHT22;5534;48.784;9.190;2023-03-12T03:38:28;4.20;99.90
10964;DHT22;5534;48.784;9.190;2023-03-12T03:40:54;4.50;99.90
10964;DHT22;5534;48.784;9.190;2023-03-12T03:43:21;4.60;99.90
10964;DHT22;5534;48.784;9.190;2023-03-12T03:45:48;4.60;99.90
10964;DHT22;5534;48.784;9.190;2023-03-12T03:48:13;4.30;99.90
10964;DHT22;5534;48.784;9.190;2023-03-12T03:50:40;4.50;99.90
10964;DHT22;5534;48.784;9.190;2023-03-12T03:53:08;4.40;99.90
10964;DHT22;5534;48.784;9.190;2023-03-12T03:55:40;4.20;99.90
10964;DHT22;5534;48.784;9.190;2023-03-12T03:58:06;4.20;99.90
10964;DHT22;5534;48.784;9.190;2023-03-12T04:00:32;4.60;99.90
10964;DHT22;5534;48.784;9.190;2023-03-12T04:02:59;4.70;99.90
10964;DHT22;5534;48.784;9.190;2023-03-12T04:05:24;4.70;99.90
10964;DHT22;5534;48.784;9.190;2023-03-12T04:07:53;4.80;99.90
10964;DHT22;5534;48.784;9.190;2023-03-12T04:10:20;4.60;99.90
10964;DHT22;5534;48.784;9.190;2023-03-12T04:12:46;4.50;99.90
10964;DHT22;5534;48.784;9.190;2023-03-12T04:15:12;4.50;99.90
10964;DHT22;5534;48.784;9.190;2023-03-12T04:17:38;4.60;99.90
10964;DHT22;5534;48.784;9.190;2023-03-12T04:20:04;4.80;99.90
10964;DHT22;5534;48.784;9.190;2023-03-12T04:22:34;4.90;99.90
10964;DHT22;5534;48.784;9.190;2023-03-12T04:25:00;5.00;99.90
10964;DHT22;5534;48.784;9.190;2023-03-12T04:27:26;4.90;99.90
10964;DHT22;5534;48.784;9.190;2023-03-12T04:29:51;5.00;99.90
10964;DHT22;5534;48.784;9.190;2023-03-12T04:32:17;5.10;99.90
10964;DHT22;5534;48.784;9.190;2023-03-12T04:34:43;5.00;99.90
10964;DHT22;5534;48.784;9.190;2023-03-12T04:37:09;4.90;99.90
10964;DHT22;5534;48.784;9.190;2023-03-12T04:39:42;4.90;99.90
10964;DHT22;5534;48.784;9.190;2023-03-12T04:42:08;5.00;99.90
10964;DHT22;5534;48.784;9.190;2023-03-12T04:44:34;5.00;99.90
10964;DHT22;5534;48.784;9.190;2023-03-12T04:47:01;4.70;99.90
10964;DHT22;5534;48.784;9.190;2023-03-12T04:49:27;4.50;99.90
10964;DHT22;5534;48.784;9.190;2023-03-12T04:51:53;4.80;99.90
10964;DHT22;5534;48.784;9.190;2023-03-12T04:54:19;4.80;99.90
10964;DHT22;5534;48.784;9.190;2023-03-12T04:56:46;4.70;99.90
10964;DHT22;5534;48.784;9.190;2023-03-12T04:59:12;4.80;99.90
10964;DHT22;5534;48.784;9.190;2023-03-12T05:01:38;5.00;99.90
10964;DHT22;5534;48.784;9.190;2023-03-12T05:04:04;5.00;99.90
10964;DHT22;5534;48.784;9.190;2023-03-12T05:06:31;5.00;99.90
10964;DHT22;5534;48.784;9.190;2023-03-12T05:08:57;5.00;99.90
10964;DHT22;5534;48.784;9.190;2023-03-12T05:11:23;4.80;99.90
10964;DHT22;5534;48.784;9.190;2023-03-12T05:13:48;4.80;99.90
10964;DHT22;5534;48.784;9.190;2023-03-12T05:16:15;4.70;99.90
10964;DHT22;5534;48.784;9.190;2023-03-12T05:18:42;4.90;99.90
10964;DHT22;5534;48.784;9.190;2023-03-12T05:21:11;5.00;99.90
10964;DHT22;5534;48.784;9.190;2023-03-12T05:23:38;5.10;99.90
10964;DHT22;5534;48.784;9.190;2023-03-12T05:28:45;5.20;99.90
10964;DHT22;5534;48.784;9.190;2023-03-12T05:31:12;5.20;99.90
10964;DHT22;5534;48.784;9.190;2023-03-12T05:33:38;5.10;99.90
10964;DHT22;5534;48.784;9.190;2023-03-12T05:36:04;5.20;99.90
10964;DHT22;5534;48.784;9.190;2023-03-12T05:38:30;5.20;99.90
10964;DHT22;5534;48.784;9.190;2023-03-12T05:40:57;5.30;99.90
10964;DHT22;5534;48.784;9.190;2023-03-12T05:43:24;5.20;99.90
10964;DHT22;5534;48.784;9.190;2023-03-12T05:45:51;5.20;99.90
10964;DHT22;5534;48.784;9.190;2023-03-12T05:48:17;5.10;99.90
10964;DHT22;5534;48.784;9.190;2023-03-12T05:50:44;5.20;99.90
10964;DHT22;5534;48.784;9.190;2023-03-12T05:53:10;5.00;99.90
10964;DHT22;5534;48.784;9.190;2023-03-12T05:55:37;5.10;99.90
10964;DHT22;5534;48.784;9.190;2023-03-12T05:58:04;5.30;99.90
10964;DHT22;5534;48.784;9.190;2023-03-12T06:00:31;5.30;99.90
10964;DHT22;5534;48.784;9.190;2023-03-12T06:02:57;5.30;99.90
10964;DHT22;5534;48.784;9.190;2023-03-12T06:05:23;5.30;99.90
10964;DHT22;5534;48.784;9.190;2023-03-12T06:07:49;5.30;99.90
10964;DHT22;5534;48.784;9.190;2023-03-12T06:10:15;5.20;99.90
10964;DHT22;5534;48.784;9.190;2023-03-12T06:12:41;5.00;99.90
10964;DHT22;5534;48.784;9.190;2023-03-12T06:15:07;5.20;99.90
10964;DHT22;5534;48.784;9.190;2023-03-12T06:17:33;5.40;99.90
10964;DHT22;5534;48.784;9.190;2023-03-12T06:20:02;5.20;99.90
10964;DHT22;5534;48.784;9.190;2023-03-12T06:22:28;5.30;99.90
10964;DHT22;5534;48.784;9.190;2023-03-12T06:24:54;5.40;99.90
10964;DHT22;5534;48.784;9.190;2023-03-12T06:27:20;5.30;99.90
10964;DHT22;5534;48.784;9.190;2023-03-12T06:29:46;5.40;99.90
10964;DHT22;5534;48.784;9.190;2023-03-12T06:32:12;5.40;99.90
10964;DHT22;5534;48.784;9.190;2023-03-12T06:34:38;5.60;99.90
10964;DHT22;5534;48.784;9.190;2023-03-12T06:37:04;5.50;99.90
10964;DHT22;5534;48.784;9.190;2023-03-12T06:39:29;5.50;99.90
10964;DHT22;5534;48.784;9.190;2023-03-12T06:41:55;5.50;99.90
10964;DHT22;5534;48.784;9.190;2023-03-12T06:44:21;5.10;99.90
10964;DHT22;5534;48.784;9.190;2023-03-12T06:46:47;5.10;99.90
10964;DHT22;5534;48.784;9.190;2023-03-12T06:49:14;5.00;99.90
10964;DHT22;5534;48.784;9.190;2023-03-12T06:51:40;5.20;99.90
10964;DHT22;5534;48.784;9.190;2023-03-12T06:54:06;5.20;99.90
10964;DHT22;5534;48.784;9.190;2023-03-12T06:56:32;5.20;99.90
10964;DHT22;5534;48.784;9.190;2023-03-12T06:58:57;5.30;99.90
10964;DHT22;5534;48.784;9.190;2023-03-12T07:01:23;5.40;99.90
10964;DHT22;5534;48.784;9.190;2023-03-12T07:03:49;5.50;99.90
10964;DHT22;5534;48.784;9.190;2023-03-12T07:06:17;5.50;99.90
10964;DHT22;5534;48.784;9.190;2023-03-12T07:08:44;5.50;99.90
10964;DHT22;5534;48.784;9.190;2023-03-12T07:11:10;5.60;99.90
10964;DHT22;5534;48.784;9.190;2023-03-12T07:13:36;5.50;99.90
10964;DHT22;5534;48.784;9.190;2023-03-12T07:16:02;5.50;99.90
10964;DHT22;5534;48.784;9.190;2023-03-12T07:18:28;5.60;99.90
10964;DHT22;5534;48.784;9.190;2023-03-12T07:20:54;5.60;99.90
10964;DHT22;5534;48.784;9.190;2023-03-12T07:23:21;5.60;99.90
10964;DHT22;5534;48.784;9.190;2023-03-12T07:25:47;5.60;99.90
10964;DHT22;5534;48.784;9.190;2023-03-12T07:28:13;5.60;99.90
10964;DHT22;5534;48.784;9.190;2023-03-12T07:30:39;5.40;99.90
10964;DHT22;5534;48.784;9.190;2023-03-12T07:33:10;5.20;99.90
10964;DHT22;5534;48.784;9.190;2023-03-12T07:35:37;5.30;99.90
10964;DHT22;5534;48.784;9.190;2023-03-12T07:38:04;5.50;99.90
10964;DHT22;5534;48.784;9.190;2023-03-12T07:40:30;5.70;99.90
10964;DHT22;5534;48.784;9.190;2023-03-12T07:42:56;5.80;99.90
10964;DHT22;5534;48.784;9.190;2023-03-12T07:45:22;5.70;99.90
10964;DHT22;5534;48.784;9.190;2023-03-12T07:47:49;5.70;99.90
10964;DHT22;5534;48.784;9.190;2023-03-12T07:50:16;5.90;99.90
10964;DHT22;5534;48.784;9.190;2023-03-12T07:52:42;5.90;99.90
10964;DHT22;5534;48.784;9.190;2023-03-12T07:55:08;6.00;99.90
10964;DHT22;5534;48.784;9.190;2023-03-12T07:57:35;6.10;99.90
10964;DHT22;5534;48.784;9.190;2023-03-12T08:00:00;6.10;99.90
10964;DHT22;5534;48.784;9.190;2023-03-12T08:02:26;6.30;99.90
10964;DHT22;5534;48.784;9.190;2023-03-12T08:04:52;6.30;99.90
10964;DHT22;5534;48.784;9.190;2023-03-12T08:07:18;6.50;99.90
10964;DHT22;5534;48.784;9.190;2023-03-12T08:09:43;6.50;99.90
10964;DHT22;5534;48.784;9.190;2023-03-12T08:12:10;6.50;99.90
10964;DHT22;5534;48.784;9.190;2023-03-12T08:14:36;6.50;99.90
10964;DHT22;5534;48.784;9.190;2023-03-12T08:17:01;6.40;99.90
10964;DHT22;5534;48.784;9.190;2023-03-12T08:19:27;6.40;99.90
10964;DHT22;5534;48.784;9.190;2023-03-12T08:21:53;6.40;99.90
10964;DHT22;5534;48.784;9.190;2023-03-12T08:24:20;6.40;99.90
10964;DHT22;5534;48.784;9.190;2023-03-12T08:26:46;6.40;99.90
10964;DHT22;5534;48.784;9.190;2023-03-12T08:29:12;6.10;99.90
10964;DHT22;5534;48.784;9.190;2023-03-12T08:31:38;6.40;99.90
10964;DHT22;5534;48.784;9.190;2023-03-12T08:34:04;6.40;99.90
10964;DHT22;5534;48.784;9.190;2023-03-12T08:36:30;6.50;99.90
10964;DHT22;5534;48.784;9.190;2023-03-12T08:38:55;6.50;99.90
10964;DHT22;5534;48.784;9.190;2023-03-12T08:41:21;6.50;99.90
10964;DHT22;5534;48.784;9.190;2023-03-12T08:43:47;6.10;99.90
10964;DHT22;5534;48.784;9.190;2023-03-12T08:46:12;6.30;99.90
10964;DHT22;5534;48.784;9.190;2023-03-12T08:48:38;6.30;99.90
10964;DHT22;5534;48.784;9.190;2023-03-12T08:51:05;6.50;99.90
10964;DHT22;5534;48.784;9.190;2023-03-12T08:53:33;6.60;99.90
10964;DHT22;5534;48.784;9.190;2023-03-12T08:56:00;6.70;99.90
10964;DHT22;5534;48.784;9.190;2023-03-12T08:58:26;6.70;99.90
10964;DHT22;5534;48.784;9.190;2023-03-12T09:00:53;6.80;99.90
10964;DHT22;5534;48.784;9.190;2023-03-12T09:03:19;6.80;99.90
10964;DHT22;5534;48.784;9.190;2023-03-12T09:05:47;6.80;99.90
10964;DHT22;5534;48.784;9.190;2023-03-12T09:08:13;6.90;99.90
10964;DHT22;5534;48.784;9.190;2023-03-12T09:10:39;6.90;99.90
10964;DHT22;5534;48.784;9.190;2023-03-12T09:13:05;6.90;99.90
10964;DHT22;5534;48.784;9.190;2023-03-12T09:15:32;6.80;99.90
10964;DHT22;5534;48.784;9.190;2023-03-12T09:17:58;6.60;99.90
10964;DHT22;5534;48.784;9.190;2023-03-12T09:20:24;6.90;99.90
10964;DHT22;5534;48.784;9.190;2023-03-12T09:22:50;7.00;99.90
10964;DHT22;5534;48.784;9.190;2023-03-12T09:25:17;6.60;99.90
10964;DHT22;5534;48.784;9.190;2023-03-12T09:27:45;6.90;99.90
10964;DHT22;5534;48.784;9.190;2023-03-12T09:30:14;7.10;99.90
10964;DHT22;5534;48.784;9.190;2023-03-12T09:32:40;7.40;99.90
10964;DHT22;5534;48.784;9.190;2023-03-12T09:35:14;7.50;99.90
10964;DHT22;5534;48.784;9.190;2023-03-12T09:37:40;7.60;99.90
10964;DHT22;5534;48.784;9.190;2023-03-12T09:40:07;7.60;99.90
10964;DHT22;5534;48.784;9.190;2023-03-12T09:42:43;7.70;99.90
10964;DHT22;5534;48.784;9.190;2023-03-12T09:45:32;7.60;99.90
10964;DHT22;5534;48.784;9.190;2023-03-12T09:48:05;7.70;99.90
10964;DHT22;5534;48.784;9.190;2023-03-12T09:50:38;7.80;99.90
10964;DHT22;5534;48.784;9.190;2023-03-12T09:55:49;7.90;99.90
10964;DHT22;5534;48.784;9.190;2023-03-12T09:58:37;7.90;99.90
10964;DHT22;5534;48.784;9.190;2023-03-12T10:06:24;8.10;99.90
10964;DHT22;5534;48.784;9.190;2023-03-12T10:09:00;8.20;99.90
10964;DHT22;5534;48.784;9.190;2023-03-12T10:11:36;8.30;99.90
10964;DHT22;5534;48.784;9.190;2023-03-12T10:20:02;8.40;99.90
10964;DHT22;5534;48.784;9.190;2023-03-12T10:22:44;8.50;99.90
10964;DHT22;5534;48.784;9.190;2023-03-12T10:28:01;8.70;99.90
10964;DHT22;5534;48.784;9.190;2023-03-12T10:30:31;8.80;99.90
10964;DHT22;5534;48.784;9.190;2023-03-12T10:33:01;8.80;99.90
10964;DHT22;5534;48.784;9.190;2023-03-12T10:35:31;8.80;99.90
10964;DHT22;5534;48.784;9.190;2023-03-12T10:37:59;8.80;99.90
10964;DHT22;5534;48.784;9.190;2023-03-12T10:40:32;8.90;99.90
10964;DHT22;5534;48.784;9.190;2023-03-12T10:43:02;9.20;99.90
10964;DHT22;5534;48.784;9.190;2023-03-12T10:48:20;9.10;99.90
10964;DHT22;5534;48.784;9.190;2023-03-12T10:51:02;9.10;99.90
10964;DHT22;5534;48.784;9.190;2023-03-12T10:53:31;9.10;99.90
10964;DHT22;5534;48.784;9.190;2023-03-12T10:58:37;9.00;99.90
10964;DHT22;5534;48.784;9.190;2023-03-12T11:01:11;9.20;99.90
10964;DHT22;5534;48.784;9.190;2023-03-12T11:03:41;9.30;99.90
10964;DHT22;5534;48.784;9.190;2023-03-12T11:06:08;9.30;99.90
10964;DHT22;5534;48.784;9.190;2023-03-12T11:08:41;9.40;99.90
10964;DHT22;5534;48.784;9.190;2023-03-12T11:11:08;9.50;99.90
10964;DHT22;5534;48.784;9.190;2023-03-12T11:13:37;9.70;99.90
10964;DHT22;5534;48.784;9.190;2023-03-12T11:16:26;9.70;99.90
10964;DHT22;5534;48.784;9.190;2023-03-12T11:18:58;9.90;99.90
10964;DHT22;5534;48.784;9.190;2023-03-12T11:21:27;10.00;99.90
10964;DHT22;5534;48.784;9.190;2023-03-12T11:26:26;10.10;99.90
10964;DHT22;5534;48.784;9.190;2023-03-12T11:29:16;10.40;99.90
10964;DHT22;5534;48.784;9.190;2023-03-12T11:32:00;10.60;99.90
10964;DHT22;5534;48.784;9.190;2023-03-12T11:34:32;10.60;99.90
10964;DHT22;5534;48.784;9.190;2023-03-12T11:54:05;10.80;99.90
10964;DHT22;5534;48.784;9.190;2023-03-12T11:59:46;10.90;99.90
10964;DHT22;5534;48.784;9.190;2023-03-12T12:02:42;11.10;99.90
10964;DHT22;5534;48.784;9.190;2023-03-12T12:08:12;11.30;99.90
10964;DHT22;5534;48.784;9.190;2023-03-12T12:13:37;11.40;99.90
10964;DHT22;5534;48.784;9.190;2023-03-12T12:21:56;11.40;99.90
10964;DHT22;5534;48.784;9.190;2023-03-12T12:32:17;11.40;99.90
10964;DHT22;5534;48.784;9.190;2023-03-12T12:45:17;11.80;99.90
10964;DHT22;5534;48.784;9.190;2023-03-12T12:47:58;11.70;99.90
10964;DHT22;5534;48.784;9.190;2023-03-12T12:50:29;12.00;99.90
10964;DHT22;5534;48.784;9.190;2023-03-12T12:53:21;11.90;99.90
10964;DHT22;5534;48.784;9.190;2023-03-12T12:56:10;12.10;99.90
10964;DHT22;5534;48.784;9.190;2023-03-12T13:01:29;12.10;99.90
10964;DHT22;5534;48.784;9.190;2023-03-12T13:04:08;12.20;99.90
10964;DHT22;5534;48.784;9.190;2023-03-12T13:09:41;12.00;99.90
10964;DHT22;5534;48.784;9.190;2023-03-12T13:12:49;11.90;99.90
10964;DHT22;5534;48.784;9.190;2023-03-12T13:26:41;11.60;99.90
10964;DHT22;5534;48.784;9.190;2023-03-12T13:29:34;11.70;99.90
10964;DHT22;5534;48.784;9.190;2023-03-12T13:32:01;11.90;99.90
10964;DHT22;5534;48.784;9.190;2023-03-12T13:34:30;11.70;99.90
10964;DHT22;5534;48.784;9.190;2023-03-12T13:36:59;11.70;99.90
10964;DHT22;5534;48.784;9.190;2023-03-12T13:39:31;11.70;99.90
10964;DHT22;5534;48.784;9.190;2023-03-12T13:41:59;11.60;99.90
10964;DHT22;5534;48.784;9.190;2023-03-12T13:44:31;11.80;99.90
10964;DHT22;5534;48.784;9.190;2023-03-12T13:47:26;11.90;99.90
10964;DHT22;5534;48.784;9.190;2023-03-12T13:50:03;12.00;99.90
10964;DHT22;5534;48.784;9.190;2023-03-12T13:52:39;12.20;99.90
10964;DHT22;5534;48.784;9.190;2023-03-12T13:57:47;12.70;99.90
10964;DHT22;5534;48.784;9.190;2023-03-12T14:00:18;12.90;99.90
10964;DHT22;5534;48.784;9.190;2023-03-12T14:02:51;13.00;99.90
10964;DHT22;5534;48.784;9.190;2023-03-12T14:05:18;13.00;99.90
10964;DHT22;5534;48.784;9.190;2023-03-12T14:08:15;13.00;99.90
10964;DHT22;5534;48.784;9.190;2023-03-12T14:11:02;12.90;99.90
10964;DHT22;5534;48.784;9.190;2023-03-12T14:13:45;12.70;99.90
10964;DHT22;5534;48.784;9.190;2023-03-12T14:19:12;12.60;99.90
10964;DHT22;5534;48.784;9.190;2023-03-12T14:21:41;12.40;99.90
10964;DHT22;5534;48.784;9.190;2023-03-12T14:26:46;12.30;99.90
10964;DHT22;5534;48.784;9.190;2023-03-12T14:31:57;12.20;99.90
10964;DHT22;5534;48.784;9.190;2023-03-12T14:34:30;12.30;99.90
10964;DHT22;5534;48.784;9.190;2023-03-12T14:39:44;12.30;99.90
10964;DHT22;5534;48.784;9.190;2023-03-12T14:42:21;12.20;99.90
10964;DHT22;5534;48.784;9.190;2023-03-12T14:47:59;12.20;99.90
10964;DHT22;5534;48.784;9.190;2023-03-12T14:50:28;12.20;99.90
10964;DHT22;5534;48.784;9.190;2023-03-12T14:53:10;12.30;99.90
10964;DHT22;5534;48.784;9.190;2023-03-12T14:55:36;12.40;99.90
10964;DHT22;5534;48.784;9.190;2023-03-12T14:58:16;12.40;99.90
10964;DHT22;5534;48.784;9.190;2023-03-12T15:00:43;12.50;99.90
10964;DHT22;5534;48.784;9.190;2023-03-12T15:03:14;12.60;99.90
10964;DHT22;5534;48.784;9.190;2023-03-12T15:05:45;12.70;99.90
10964;DHT22;5534;48.784;9.190;2023-03-12T15:08:13;12.80;99.90
10964;DHT22;5534;48.784;9.190;2023-03-12T15:10:40;12.70;99.90
10964;DHT22;5534;48.784;9.190;2023-03-12T15:13:12;12.70;99.90
10964;DHT22;5534;48.784;9.190;2023-03-12T15:15:43;12.90;99.90
10964;DHT22;5534;48.784;9.190;2023-03-12T15:18:27;12.80;99.90
10964;DHT22;5534;48.784;9.190;2023-03-12T15:20:55;12.70;99.90
10964;DHT22;5534;48.784;9.190;2023-03-12T15:23:23;12.60;99.90
10964;DHT22;5534;48.784;9.190;2023-03-12T15:28:38;12.70;99.90
10964;DHT22;5534;48.784;9.190;2023-03-12T15:31:10;12.60;99.90
10964;DHT22;5534;48.784;9.190;2023-03-12T15:33:37;12.70;99.90
10964;DHT22;5534;48.784;9.190;2023-03-12T15:36:24;12.70;99.90
10964;DHT22;5534;48.784;9.190;2023-03-12T15:41:33;12.60;99.90
10964;DHT22;5534;48.784;9.190;2023-03-12T15:44:00;12.50;99.90
10964;DHT22;5534;48.784;9.190;2023-03-12T15:46:29;12.40;99.90
10964;DHT22;5534;48.784;9.190;2023-03-12T15:48:59;12.40;99.90
10964;DHT22;5534;48.784;9.190;2023-03-12T15:51:36;12.30;99.90
10964;DHT22;5534;48.784;9.190;2023-03-12T15:56:42;12.30;99.90
10964;DHT22;5534;48.784;9.190;2023-03-12T16:01:49;12.30;99.90
10964;DHT22;5534;48.784;9.190;2023-03-12T16:04:15;12.30;99.90
10964;DHT22;5534;48.784;9.190;2023-03-12T16:06:41;12.30;99.90
10964;DHT22;5534;48.784;9.190;2023-03-12T16:09:21;12.30;99.90
10964;DHT22;5534;48.784;9.190;2023-03-12T16:11:49;12.30;99.90
10964;DHT22;5534;48.784;9.190;2023-03-12T16:14:23;12.30;99.90
10964;DHT22;5534;48.784;9.190;2023-03-12T16:16:50;12.20;99.90
10964;DHT22;5534;48.784;9.190;2023-03-12T16:19:19;12.20;99.90
10964;DHT22;5534;48.784;9.190;2023-03-12T16:21:45;12.20;99.90
10964;DHT22;5534;48.784;9.190;2023-03-12T16:24:13;12.20;99.90
10964;DHT22;5534;48.784;9.190;2023-03-12T16:26:47;12.20;99.90
10964;DHT22;5534;48.784;9.190;2023-03-12T16:29:15;12.20;99.90
10964;DHT22;5534;48.784;9.190;2023-03-12T16:31:43;12.10;99.90
10964;DHT22;5534;48.784;9.190;2023-03-12T16:34:10;12.10;99.90
10964;DHT22;5534;48.784;9.190;2023-03-12T16:36:37;12.10;99.90
10964;DHT22;5534;48.784;9.190;2023-03-12T16:39:04;12.10;99.90
10964;DHT22;5534;48.784;9.190;2023-03-12T16:41:30;12.20;99.90
10964;DHT22;5534;48.784;9.190;2023-03-12T16:43:58;12.10;99.90
10964;DHT22;5534;48.784;9.190;2023-03-12T16:46:29;12.10;99.90
10964;DHT22;5534;48.784;9.190;2023-03-12T16:48:55;12.00;99.90
10964;DHT22;5534;48.784;9.190;2023-03-12T16:51:21;12.10;99.90
10964;DHT22;5534;48.784;9.190;2023-03-12T16:53:47;12.00;99.90
10964;DHT22;5534;48.784;9.190;2023-03-12T16:56:16;12.00;99.90
10964;DHT22;5534;48.784;9.190;2023-03-12T16:58:43;12.00;99.90
10964;DHT22;5534;48.784;9.190;2023-03-12T17:01:13;12.00;99.90
10964;DHT22;5534;48.784;9.190;2023-03-12T17:03:42;11.90;99.90
10964;DHT22;5534;48.784;9.190;2023-03-12T17:06:18;11.90;99.90
10964;DHT22;5534;48.784;9.190;2023-03-12T17:08:45;11.90;99.90
10964;DHT22;5534;48.784;9.190;2023-03-12T17:11:18;11.90;99.90
10964;DHT22;5534;48.784;9.190;2023-03-12T17:13:47;11.90;99.90
10964;DHT22;5534;48.784;9.190;2023-03-12T17:16:14;11.90;99.90
10964;DHT22;5534;48.784;9.190;2023-03-12T17:18:40;11.80;99.90
10964;DHT22;5534;48.784;9.190;2023-03-12T17:21:09;11.70;99.90
10964;DHT22;5534;48.784;9.190;2023-03-12T17:23:35;11.70;99.90
10964;DHT22;5534;48.784;9.190;2023-03-12T17:26:01;11.80;99.90
10964;DHT22;5534;48.784;9.190;2023-03-12T17:28:27;11.70;99.90
10964;DHT22;5534;48.784;9.190;2023-03-12T17:30:53;11.70;99.90
10964;DHT22;5534;48.784;9.190;2023-03-12T17:33:19;11.70;99.90
10964;DHT22;5534;48.784;9.190;2023-03-12T17:35:45;11.70;99.90
10964;DHT22;5534;48.784;9.190;2023-03-12T17:38:12;11.70;99.90
10964;DHT22;5534;48.784;9.190;2023-03-12T17:40:39;11.60;99.90
10964;DHT22;5534;48.784;9.190;2023-03-12T17:43:05;11.60;99.90
10964;DHT22;5534;48.784;9.190;2023-03-12T17:45:31;11.60;99.90
10964;DHT22;5534;48.784;9.190;2023-03-12T17:47:57;11.50;99.90
10964;DHT22;5534;48.784;9.190;2023-03-12T17:50:23;11.50;99.90
10964;DHT22;5534;48.784;9.190;2023-03-12T17:52:49;11.50;99.90
10964;DHT22;5534;48.784;9.190;2023-03-12T17:55:15;11.40;99.90
10964;DHT22;5534;48.784;9.190;2023-03-12T17:57:41;11.40;99.90
10964;DHT22;5534;48.784;9.190;2023-03-12T18:00:09;11.30;99.90
10964;DHT22;5534;48.784;9.190;2023-03-12T18:02:38;11.30;99.90
10964;DHT22;5534;48.784;9.190;2023-03-12T18:05:05;11.20;99.90
10964;DHT22;5534;48.784;9.190;2023-03-12T18:07:31;11.10;99.90
10964;DHT22;5534;48.784;9.190;2023-03-12T18:09:57;11.10;99.90